sensor_id;sensor_type;location;lat;lon;timestamp;temperature;humidity
17762;DHT22;9005;48.838;10.112;2023-09-30T00:00:15;15.00;78.40
17762;DHT22;9005;48.838;10.112;2023-09-30T00:02:42;14.90;78.50
17762;DHT22;9005;48.838;10.112;2023-09-30T00:05:09;14.80;78.90
17762;DHT22;9005;48.838;10.112;2023-09-30T00:07:36;14.70;79.20
17762;DHT22;9005;48.838;10.112;2023-09-30T00:10:03;14.60;79.90
17762;DHT22;9005;48.838;10.112;2023-09-30T00:12:32;14.50;80.40
17762;DHT22;9005;48.838;10.112;2023-09-30T00:14:58;14.50;80.50
17762;DHT22;9005;48.838;10.112;2023-09-30T00:17:25;14.60;80.30
17762;DHT22;9005;48.838;10.112;2023-09-30T00:19:52;14.70;80.00
17762;DHT22;9005;48.838;10.112;2023-09-30T00:22:18;14.80;79.70
17762;DHT22;9005;48.838;10.112;2023-09-30T00:24:45;14.80;79.30
17762;DHT22;9005;48.838;10.112;2023-09-30T00:27:12;14.90;78.90
17762;DHT22;9005;48.838;10.112;2023-09-30T00:29:40;14.90;78.80
17762;DHT22;9005;48.838;10.112;2023-09-30T00:32:07;15.00;78.60
17762;DHT22;9005;48.838;10.112;2023-09-30T00:34:34;15.00;78.20
17762;DHT22;9005;48.838;10.112;2023-09-30T00:37:01;15.00;78.10
17762;DHT22;9005;48.838;10.112;2023-09-30T00:39:28;15.00;77.90
17762;DHT22;9005;48.838;10.112;2023-09-30T00:41:56;15.00;77.70
17762;DHT22;9005;48.838;10.112;2023-09-30T00:44:23;15.00;77.80
17762;DHT22;9005;48.838;10.112;2023-09-30T00:46:52;14.90;78.10
17762;DHT22;9005;48.838;10.112;2023-09-30T00:49:21;14.80;78.30
17762;DHT22;9005;48.838;10.112;2023-09-30T00:51:48;14.70;78.80
17762;DHT22;9005;48.838;10.112;2023-09-30T00:54:15;14.60;79.20
17762;DHT22;9005;48.838;10.112;2023-09-30T00:56:44;14.50;79.60
17762;DHT22;9005;48.838;10.112;2023-09-30T00:59:12;14.40;80.10
17762;DHT22;9005;48.838;10.112;2023-09-30T01:01:40;14.30;80.60
17762;DHT22;9005;48.838;10.112;2023-09-30T01:04:08;14.20;80.90
17762;DHT22;9005;48.838;10.112;2023-09-30T01:06:35;14.20;81.10
17762;DHT22;9005;48.838;10.112;2023-09-30T01:09:02;14.20;81.20
17762;DHT22;9005;48.838;10.112;2023-09-30T01:11:29;14.30;81.00
17762;DHT22;9005;48.838;10.112;2023-09-30T01:13:56;14.30;80.80
17762;DHT22;9005;48.838;10.112;2023-09-30T01:16:23;14.40;80.60
17762;DHT22;9005;48.838;10.112;2023-09-30T01:18:50;14.40;80.50
17762;DHT22;9005;48.838;10.112;2023-09-30T01:21:18;14.40;80.40
17762;DHT22;9005;48.838;10.112;2023-09-30T01:23:47;14.40;80.60
17762;DHT22;9005;48.838;10.112;2023-09-30T01:26:14;14.40;80.40
17762;DHT22;9005;48.838;10.112;2023-09-30T01:28:41;14.40;80.40
17762;DHT22;9005;48.838;10.112;2023-09-30T01:31:08;14.40;80.40
17762;DHT22;9005;48.838;10.112;2023-09-30T01:33:34;14.50;80.40
17762;DHT22;9005;48.838;10.112;2023-09-30T01:36:01;14.50;80.30
17762;DHT22;9005;48.838;10.112;2023-09-30T01:38:28;14.40;80.50
17762;DHT22;9005;48.838;10.112;2023-09-30T01:40:56;14.40;80.60
17762;DHT22;9005;48.838;10.112;2023-09-30T01:43:23;14.40;80.60
17762;DHT22;9005;48.838;10.112;2023-09-30T01:45:50;14.40;80.60
17762;DHT22;9005;48.838;10.112;2023-09-30T01:48:16;14.40;80.60
17762;DHT22;9005;48.838;10.112;2023-09-30T01:50:43;14.50;80.40
17762;DHT22;9005;48.838;10.112;2023-09-30T01:53:10;14.50;80.30
17762;DHT22;9005;48.838;10.112;2023-09-30T01:55:36;14.50;80.20
17762;DHT22;9005;48.838;10.112;2023-09-30T01:58:04;14.50;80.20
17762;DHT22;9005;48.838;10.112;2023-09-30T02:00:31;14.50;80.20
17762;DHT22;9005;48.838;10.112;2023-09-30T02:03:00;14.50;80.10
17762;DHT22;9005;48.838;10.112;2023-09-30T02:05:26;14.50;80.20
17762;DHT22;9005;48.838;10.112;2023-09-30T02:07:53;14.50;80.10
17762;DHT22;9005;48.838;10.112;2023-09-30T02:10:20;14.50;80.20
17762;DHT22;9005;48.838;10.112;2023-09-30T02:12:47;14.40;80.20
17762;DHT22;9005;48.838;10.112;2023-09-30T02:15:15;14.40;80.40
17762;DHT22;9005;48.838;10.112;2023-09-30T02:17:42;14.40;80.40
17762;DHT22;9005;48.838;10.112;2023-09-30T02:20:11;14.40;80.50
17762;DHT22;9005;48.838;10.112;2023-09-30T02:22:41;14.40;80.50
17762;DHT22;9005;48.838;10.112;2023-09-30T02:25:09;14.40;80.60
17762;DHT22;9005;48.838;10.112;2023-09-30T02:27:38;14.30;80.80
17762;DHT22;9005;48.838;10.112;2023-09-30T02:30:08;14.30;80.80
17762;DHT22;9005;48.838;10.112;2023-09-30T02:32:37;14.30;80.90
17762;DHT22;9005;48.838;10.112;2023-09-30T02:35:05;14.30;81.20
17762;DHT22;9005;48.838;10.112;2023-09-30T02:37:32;14.20;81.20
17762;DHT22;9005;48.838;10.112;2023-09-30T02:40:01;14.20;81.20
17762;DHT22;9005;48.838;10.112;2023-09-30T02:42:30;14.20;81.40
17762;DHT22;9005;48.838;10.112;2023-09-30T02:44:59;14.20;81.70
17762;DHT22;9005;48.838;10.112;2023-09-30T02:47:26;14.10;81.80
17762;DHT22;9005;48.838;10.112;2023-09-30T02:49:56;14.10;82.00
17762;DHT22;9005;48.838;10.112;2023-09-30T02:52:23;14.00;82.10
17762;DHT22;9005;48.838;10.112;2023-09-30T02:54:50;14.00;82.20
17762;DHT22;9005;48.838;10.112;2023-09-30T02:57:17;14.00;82.20
17762;DHT22;9005;48.838;10.112;2023-09-30T02:59:44;14.00;82.30
17762;DHT22;9005;48.838;10.112;2023-09-30T03:02:11;14.00;82.40
17762;DHT22;9005;48.838;10.112;2023-09-30T03:04:38;14.00;82.30
17762;DHT22;9005;48.838;10.112;2023-09-30T03:07:06;14.00;82.40
17762;DHT22;9005;48.838;10.112;2023-09-30T03:09:34;14.00;82.50
17762;DHT22;9005;48.838;10.112;2023-09-30T03:12:01;14.00;82.60
17762;DHT22;9005;48.838;10.112;2023-09-30T03:14:30;14.00;82.50
17762;DHT22;9005;48.838;10.112;2023-09-30T03:16:57;14.00;82.60
17762;DHT22;9005;48.838;10.112;2023-09-30T03:19:24;14.00;82.70
17762;DHT22;9005;48.838;10.112;2023-09-30T03:21:51;14.00;82.80
17762;DHT22;9005;48.838;10.112;2023-09-30T03:24:19;13.90;82.90
17762;DHT22;9005;48.838;10.112;2023-09-30T03:26:46;13.90;83.00
17762;DHT22;9005;48.838;10.112;2023-09-30T03:29:13;13.90;83.10
17762;DHT22;9005;48.838;10.112;2023-09-30T03:31:40;13.90;83.30
17762;DHT22;9005;48.838;10.112;2023-09-30T03:34:07;13.80;83.40
17762;DHT22;9005;48.838;10.112;2023-09-30T03:36:34;13.80;83.60
17762;DHT22;9005;48.838;10.112;2023-09-30T03:39:01;13.80;83.70
17762;DHT22;9005;48.838;10.112;2023-09-30T03:41:32;13.80;83.80
17762;DHT22;9005;48.838;10.112;2023-09-30T03:44:00;13.80;83.70
17762;DHT22;9005;48.838;10.112;2023-09-30T03:46:28;13.80;83.90
17762;DHT22;9005;48.838;10.112;2023-09-30T03:48:55;13.80;83.80
17762;DHT22;9005;48.838;10.112;2023-09-30T03:51:22;13.70;83.90
17762;DHT22;9005;48.838;10.112;2023-09-30T03:53:50;13.70;84.00
17762;DHT22;9005;48.838;10.112;2023-09-30T03:56:17;13.70;83.90
17762;DHT22;9005;48.838;10.112;2023-09-30T03:58:46;13.70;83.90
17762;DHT22;9005;48.838;10.112;2023-09-30T04:01:13;13.70;83.80
17762;DHT22;9005;48.838;10.112;2023-09-30T04:03:41;13.70;83.80
17762;DHT22;9005;48.838;10.112;2023-09-30T04:06:08;13.70;83.90
17762;DHT22;9005;48.838;10.112;2023-09-30T04:08:35;13.70;83.90
17762;DHT22;9005;48.838;10.112;2023-09-30T04:11:03;13.70;84.00
17762;DHT22;9005;48.838;10.112;2023-09-30T04:13:29;13.80;83.80
17762;DHT22;9005;48.838;10.112;2023-09-30T04:15:56;13.70;83.90
17762;DHT22;9005;48.838;10.112;2023-09-30T04:18:24;13.70;83.90
17762;DHT22;9005;48.838;10.112;2023-09-30T04:20:51;13.70;83.90
17762;DHT22;9005;48.838;10.112;2023-09-30T04:23:18;13.70;83.80
17762;DHT22;9005;48.838;10.112;2023-09-30T04:25:46;13.70;83.90
17762;DHT22;9005;48.838;10.112;2023-09-30T04:28:13;13.70;84.00
17762;DHT22;9005;48.838;10.112;2023-09-30T04:30:41;13.70;84.00
17762;DHT22;9005;48.838;10.112;2023-09-30T04:33:09;13.70;83.90
17762;DHT22;9005;48.838;10.112;2023-09-30T04:35:37;13.70;83.90
17762;DHT22;9005;48.838;10.112;2023-09-30T04:38:04;13.70;84.10
17762;DHT22;9005;48.838;10.112;2023-09-30T04:40:31;13.70;83.90
17762;DHT22;9005;48.838;10.112;2023-09-30T04:42:59;13.70;84.00
17762;DHT22;9005;48.838;10.112;2023-09-30T04:45:26;13.60;84.10
17762;DHT22;9005;48.838;10.112;2023-09-30T04:47:53;13.60;84.50
17762;DHT22;9005;48.838;10.112;2023-09-30T04:50:23;13.50;84.70
17762;DHT22;9005;48.838;10.112;2023-09-30T04:52:50;13.40;85.00
17762;DHT22;9005;48.838;10.112;2023-09-30T04:55:17;13.40;85.20
17762;DHT22;9005;48.838;10.112;2023-09-30T04:57:44;13.40;85.40
17762;DHT22;9005;48.838;10.112;2023-09-30T05:00:12;13.40;85.50
17762;DHT22;9005;48.838;10.112;2023-09-30T05:02:39;13.40;85.50
17762;DHT22;9005;48.838;10.112;2023-09-30T05:05:07;13.30;85.60
17762;DHT22;9005;48.838;10.112;2023-09-30T05:07:35;13.30;85.90
17762;DHT22;9005;48.838;10.112;2023-09-30T05:10:02;13.10;86.60
17762;DHT22;9005;48.838;10.112;2023-09-30T05:12:31;13.10;86.80
17762;DHT22;9005;48.838;10.112;2023-09-30T05:14:58;13.00;87.10
17762;DHT22;9005;48.838;10.112;2023-09-30T05:17:25;12.90;87.50
17762;DHT22;9005;48.838;10.112;2023-09-30T05:19:52;12.80;87.80
17762;DHT22;9005;48.838;10.112;2023-09-30T05:22:19;12.80;88.30
17762;DHT22;9005;48.838;10.112;2023-09-30T05:24:51;12.70;88.20
17762;DHT22;9005;48.838;10.112;2023-09-30T05:27:18;12.50;87.80
17762;DHT22;9005;48.838;10.112;2023-09-30T05:29:45;12.40;88.60
17762;DHT22;9005;48.838;10.112;2023-09-30T05:32:12;12.40;89.00
17762;DHT22;9005;48.838;10.112;2023-09-30T05:34:40;12.30;89.30
17762;DHT22;9005;48.838;10.112;2023-09-30T05:37:06;12.30;89.60
17762;DHT22;9005;48.838;10.112;2023-09-30T05:39:33;12.30;90.00
17762;DHT22;9005;48.838;10.112;2023-09-30T05:42:02;12.40;90.40
17762;DHT22;9005;48.838;10.112;2023-09-30T05:44:30;12.40;90.20
17762;DHT22;9005;48.838;10.112;2023-09-30T05:46:57;12.50;90.00
17762;DHT22;9005;48.838;10.112;2023-09-30T05:49:25;12.50;90.00
17762;DHT22;9005;48.838;10.112;2023-09-30T05:51:52;12.50;89.90
17762;DHT22;9005;48.838;10.112;2023-09-30T05:54:20;12.60;89.70
17762;DHT22;9005;48.838;10.112;2023-09-30T05:56:48;12.60;89.50
17762;DHT22;9005;48.838;10.112;2023-09-30T05:59:16;12.60;89.70
17762;DHT22;9005;48.838;10.112;2023-09-30T06:01:42;12.70;89.90
17762;DHT22;9005;48.838;10.112;2023-09-30T06:04:11;12.80;89.60
17762;DHT22;9005;48.838;10.112;2023-09-30T06:06:38;12.90;89.10
17762;DHT22;9005;48.838;10.112;2023-09-30T06:09:06;13.00;88.70
17762;DHT22;9005;48.838;10.112;2023-09-30T06:11:33;13.10;87.90
17762;DHT22;9005;48.838;10.112;2023-09-30T06:14:02;13.20;87.10
17762;DHT22;9005;48.838;10.112;2023-09-30T06:16:33;13.30;86.80
17762;DHT22;9005;48.838;10.112;2023-09-30T06:19:00;13.30;86.30
17762;DHT22;9005;48.838;10.112;2023-09-30T06:21:27;13.30;86.10
17762;DHT22;9005;48.838;10.112;2023-09-30T06:23:55;13.40;86.00
17762;DHT22;9005;48.838;10.112;2023-09-30T06:26:21;13.40;85.80
17762;DHT22;9005;48.838;10.112;2023-09-30T06:28:50;13.40;85.60
17762;DHT22;9005;48.838;10.112;2023-09-30T06:31:19;13.50;85.70
17762;DHT22;9005;48.838;10.112;2023-09-30T06:33:47;13.50;85.60
17762;DHT22;9005;48.838;10.112;2023-09-30T06:36:14;13.60;85.40
17762;DHT22;9005;48.838;10.112;2023-09-30T06:38:43;13.60;85.10
17762;DHT22;9005;48.838;10.112;2023-09-30T06:41:15;13.60;85.00
17762;DHT22;9005;48.838;10.112;2023-09-30T06:43:42;13.70;85.00
17762;DHT22;9005;48.838;10.112;2023-09-30T06:46:09;13.70;85.00
17762;DHT22;9005;48.838;10.112;2023-09-30T06:48:36;13.70;84.90
17762;DHT22;9005;48.838;10.112;2023-09-30T06:51:07;13.70;85.00
17762;DHT22;9005;48.838;10.112;2023-09-30T06:53:34;13.70;84.70
17762;DHT22;9005;48.838;10.112;2023-09-30T06:56:04;13.80;85.00
17762;DHT22;9005;48.838;10.112;2023-09-30T06:58:31;13.80;84.30
17762;DHT22;9005;48.838;10.112;2023-09-30T07:00:58;13.90;84.20
17762;DHT22;9005;48.838;10.112;2023-09-30T07:03:25;14.00;84.00
17762;DHT22;9005;48.838;10.112;2023-09-30T07:05:51;14.20;83.40
17762;DHT22;9005;48.838;10.112;2023-09-30T07:08:21;14.40;82.90
17762;DHT22;9005;48.838;10.112;2023-09-30T07:10:48;14.60;81.10
17762;DHT22;9005;48.838;10.112;2023-09-30T07:13:16;14.60;80.30
17762;DHT22;9005;48.838;10.112;2023-09-30T07:15:43;14.60;80.00
17762;DHT22;9005;48.838;10.112;2023-09-30T07:18:10;14.60;79.30
17762;DHT22;9005;48.838;10.112;2023-09-30T07:20:37;14.50;79.30
17762;DHT22;9005;48.838;10.112;2023-09-30T07:23:04;14.40;79.50
17762;DHT22;9005;48.838;10.112;2023-09-30T07:25:32;14.40;79.30
17762;DHT22;9005;48.838;10.112;2023-09-30T07:28:00;14.40;79.70
17762;DHT22;9005;48.838;10.112;2023-09-30T07:30:27;14.50;78.90
17762;DHT22;9005;48.838;10.112;2023-09-30T07:32:53;14.50;79.00
17762;DHT22;9005;48.838;10.112;2023-09-30T07:35:21;14.60;78.90
17762;DHT22;9005;48.838;10.112;2023-09-30T07:37:47;14.80;77.40
17762;DHT22;9005;48.838;10.112;2023-09-30T07:40:17;14.90;76.50
17762;DHT22;9005;48.838;10.112;2023-09-30T07:42:45;14.90;76.40
17762;DHT22;9005;48.838;10.112;2023-09-30T07:45:12;14.90;76.30
17762;DHT22;9005;48.838;10.112;2023-09-30T07:47:43;14.90;76.00
17762;DHT22;9005;48.838;10.112;2023-09-30T07:50:10;14.90;76.30
17762;DHT22;9005;48.838;10.112;2023-09-30T07:52:37;14.90;75.80
17762;DHT22;9005;48.838;10.112;2023-09-30T07:55:06;14.80;76.00
17762;DHT22;9005;48.838;10.112;2023-09-30T07:57:33;14.80;76.30
17762;DHT22;9005;48.838;10.112;2023-09-30T08:00:02;14.80;76.20
17762;DHT22;9005;48.838;10.112;2023-09-30T08:02:33;14.90;75.50
17762;DHT22;9005;48.838;10.112;2023-09-30T08:05:00;15.00;75.00
17762;DHT22;9005;48.838;10.112;2023-09-30T08:07:26;15.10;74.40
17762;DHT22;9005;48.838;10.112;2023-09-30T08:09:53;15.20;74.00
17762;DHT22;9005;48.838;10.112;2023-09-30T08:12:20;15.30;73.00
17762;DHT22;9005;48.838;10.112;2023-09-30T08:14:47;15.50;71.90
17762;DHT22;9005;48.838;10.112;2023-09-30T08:17:15;15.70;71.10
17762;DHT22;9005;48.838;10.112;2023-09-30T08:19:43;15.90;71.20
17762;DHT22;9005;48.838;10.112;2023-09-30T08:22:10;16.20;69.20
17762;DHT22;9005;48.838;10.112;2023-09-30T08:24:36;16.50;68.70
17762;DHT22;9005;48.838;10.112;2023-09-30T08:27:03;16.50;67.40
17762;DHT22;9005;48.838;10.112;2023-09-30T08:29:33;16.40;67.50
17762;DHT22;9005;48.838;10.112;2023-09-30T08:32:01;16.20;67.80
17762;DHT22;9005;48.838;10.112;2023-09-30T08:34:29;15.90;68.40
17762;DHT22;9005;48.838;10.112;2023-09-30T08:36:56;15.70;68.80
17762;DHT22;9005;48.838;10.112;2023-09-30T08:39:24;15.60;69.50
17762;DHT22;9005;48.838;10.112;2023-09-30T08:41:51;15.70;69.60
17762;DHT22;9005;48.838;10.112;2023-09-30T08:44:18;15.90;68.60
17762;DHT22;9005;48.838;10.112;2023-09-30T08:46:45;16.10;66.00
17762;DHT22;9005;48.838;10.112;2023-09-30T08:49:13;16.30;66.30
17762;DHT22;9005;48.838;10.112;2023-09-30T08:51:43;16.50;64.10
17762;DHT22;9005;48.838;10.112;2023-09-30T08:54:10;16.60;64.00
17762;DHT22;9005;48.838;10.112;2023-09-30T08:56:37;16.90;63.40
17762;DHT22;9005;48.838;10.112;2023-09-30T08:59:07;17.00;62.30
17762;DHT22;9005;48.838;10.112;2023-09-30T09:01:34;17.10;62.40
17762;DHT22;9005;48.838;10.112;2023-09-30T09:04:01;17.20;62.60
17762;DHT22;9005;48.838;10.112;2023-09-30T09:06:29;17.40;61.50
17762;DHT22;9005;48.838;10.112;2023-09-30T09:09:13;17.60;61.10
17762;DHT22;9005;48.838;10.112;2023-09-30T09:11:40;17.90;60.60
17762;DHT22;9005;48.838;10.112;2023-09-30T09:14:07;18.20;58.60
17762;DHT22;9005;48.838;10.112;2023-09-30T09:16:34;18.30;58.20
17762;DHT22;9005;48.838;10.112;2023-09-30T09:19:12;18.50;56.90
17762;DHT22;9005;48.838;10.112;2023-09-30T09:21:53;18.60;56.70
17762;DHT22;9005;48.838;10.112;2023-09-30T09:24:29;18.80;56.90
17762;DHT22;9005;48.838;10.112;2023-09-30T09:27:06;19.00;56.20
17762;DHT22;9005;48.838;10.112;2023-09-30T09:29:34;19.10;55.70
17762;DHT22;9005;48.838;10.112;2023-09-30T09:32:11;19.00;55.90
17762;DHT22;9005;48.838;10.112;2023-09-30T09:34:39;18.90;56.40
17762;DHT22;9005;48.838;10.112;2023-09-30T09:37:16;18.80;55.50
17762;DHT22;9005;48.838;10.112;2023-09-30T09:39:51;18.60;56.60
17762;DHT22;9005;48.838;10.112;2023-09-30T09:42:26;18.30;56.60
17762;DHT22;9005;48.838;10.112;2023-09-30T09:44:55;18.30;56.90
17762;DHT22;9005;48.838;10.112;2023-09-30T09:47:23;18.60;56.80
17762;DHT22;9005;48.838;10.112;2023-09-30T09:49:51;19.30;55.80
17762;DHT22;9005;48.838;10.112;2023-09-30T09:52:18;20.40;52.70
17762;DHT22;9005;48.838;10.112;2023-09-30T09:54:46;21.60;48.60
17762;DHT22;9005;48.838;10.112;2023-09-30T09:57:15;22.60;46.40
17762;DHT22;9005;48.838;10.112;2023-09-30T09:59:43;23.50;44.60
17762;DHT22;9005;48.838;10.112;2023-09-30T10:02:11;24.00;43.20
17762;DHT22;9005;48.838;10.112;2023-09-30T10:04:40;24.10;40.50
17762;DHT22;9005;48.838;10.112;2023-09-30T10:07:10;23.40;42.10
17762;DHT22;9005;48.838;10.112;2023-09-30T10:09:44;22.60;44.10
17762;DHT22;9005;48.838;10.112;2023-09-30T10:12:14;22.30;44.80
17762;DHT22;9005;48.838;10.112;2023-09-30T10:14:41;22.10;45.50
17762;DHT22;9005;48.838;10.112;2023-09-30T10:17:09;21.80;46.30
17762;DHT22;9005;48.838;10.112;2023-09-30T10:19:36;21.90;46.40
17762;DHT22;9005;48.838;10.112;2023-09-30T10:22:23;22.20;45.70
17762;DHT22;9005;48.838;10.112;2023-09-30T10:24:52;22.40;45.20
17762;DHT22;9005;48.838;10.112;2023-09-30T10:27:34;22.30;45.90
17762;DHT22;9005;48.838;10.112;2023-09-30T10:30:07;23.00;43.70
17762;DHT22;9005;48.838;10.112;2023-09-30T10:33:12;22.70;45.10
17762;DHT22;9005;48.838;10.112;2023-09-30T10:35:47;22.70;45.80
17762;DHT22;9005;48.838;10.112;2023-09-30T10:38:37;22.90;45.00
17762;DHT22;9005;48.838;10.112;2023-09-30T10:41:03;23.60;43.20
17762;DHT22;9005;48.838;10.112;2023-09-30T10:43:33;24.40;42.90
17762;DHT22;9005;48.838;10.112;2023-09-30T10:46:01;25.40;41.10
17762;DHT22;9005;48.838;10.112;2023-09-30T10:48:35;26.70;38.50
17762;DHT22;9005;48.838;10.112;2023-09-30T10:51:02;27.40;37.10
17762;DHT22;9005;48.838;10.112;2023-09-30T10:53:44;27.60;36.30
17762;DHT22;9005;48.838;10.112;2023-09-30T10:56:12;28.00;36.00
17762;DHT22;9005;48.838;10.112;2023-09-30T10:58:41;28.30;35.00
17762;DHT22;9005;48.838;10.112;2023-09-30T11:01:08;28.00;35.20
17762;DHT22;9005;48.838;10.112;2023-09-30T11:03:35;27.30;35.30
17762;DHT22;9005;48.838;10.112;2023-09-30T11:06:02;26.20;36.90
17762;DHT22;9005;48.838;10.112;2023-09-30T11:08:30;25.30;38.30
17762;DHT22;9005;48.838;10.112;2023-09-30T11:10:57;25.10;39.00
17762;DHT22;9005;48.838;10.112;2023-09-30T11:13:31;25.20;38.10
17762;DHT22;9005;48.838;10.112;2023-09-30T11:16:02;24.80;38.60
17762;DHT22;9005;48.838;10.112;2023-09-30T11:18:30;24.10;40.00
17762;DHT22;9005;48.838;10.112;2023-09-30T11:21:08;23.00;40.70
17762;DHT22;9005;48.838;10.112;2023-09-30T11:23:36;22.10;42.20
17762;DHT22;9005;48.838;10.112;2023-09-30T11:26:04;21.30;43.50
17762;DHT22;9005;48.838;10.112;2023-09-30T11:28:39;20.70;45.30
17762;DHT22;9005;48.838;10.112;2023-09-30T11:31:10;20.30;46.30
17762;DHT22;9005;48.838;10.112;2023-09-30T11:33:53;20.20;47.20
17762;DHT22;9005;48.838;10.112;2023-09-30T11:36:22;20.00;48.40
17762;DHT22;9005;48.838;10.112;2023-09-30T11:38:51;19.70;48.00
17762;DHT22;9005;48.838;10.112;2023-09-30T11:41:19;19.60;48.50
17762;DHT22;9005;48.838;10.112;2023-09-30T11:44:00;19.50;49.40
17762;DHT22;9005;48.838;10.112;2023-09-30T11:46:31;19.30;48.80
17762;DHT22;9005;48.838;10.112;2023-09-30T11:49:02;19.20;48.30
17762;DHT22;9005;48.838;10.112;2023-09-30T11:51:43;19.20;48.10
17762;DHT22;9005;48.838;10.112;2023-09-30T11:54:11;20.10;46.10
17762;DHT22;9005;48.838;10.112;2023-09-30T11:56:38;21.80;43.30
17762;DHT22;9005;48.838;10.112;2023-09-30T11:59:05;23.70;40.20
17762;DHT22;9005;48.838;10.112;2023-09-30T12:01:33;25.30;36.50
17762;DHT22;9005;48.838;10.112;2023-09-30T12:03:59;26.60;35.20
17762;DHT22;9005;48.838;10.112;2023-09-30T12:06:26;27.70;33.50
17762;DHT22;9005;48.838;10.112;2023-09-30T12:08:53;27.30;32.20
17762;DHT22;9005;48.838;10.112;2023-09-30T12:11:20;25.50;34.40
17762;DHT22;9005;48.838;10.112;2023-09-30T12:13:47;23.70;37.60
17762;DHT22;9005;48.838;10.112;2023-09-30T12:16:14;22.50;39.30
17762;DHT22;9005;48.838;10.112;2023-09-30T12:18:43;22.40;40.50
17762;DHT22;9005;48.838;10.112;2023-09-30T12:21:10;22.60;40.10
17762;DHT22;9005;48.838;10.112;2023-09-30T12:23:38;23.20;39.20
17762;DHT22;9005;48.838;10.112;2023-09-30T12:26:06;23.80;37.80
17762;DHT22;9005;48.838;10.112;2023-09-30T12:28:33;24.10;36.90
17762;DHT22;9005;48.838;10.112;2023-09-30T12:31:00;24.50;36.60
17762;DHT22;9005;48.838;10.112;2023-09-30T12:33:28;24.80;35.60
17762;DHT22;9005;48.838;10.112;2023-09-30T12:35:57;25.50;34.60
17762;DHT22;9005;48.838;10.112;2023-09-30T12:38:24;25.90;33.70
17762;DHT22;9005;48.838;10.112;2023-09-30T12:40:53;26.00;34.90
17762;DHT22;9005;48.838;10.112;2023-09-30T12:43:21;26.20;34.30
17762;DHT22;9005;48.838;10.112;2023-09-30T12:45:47;26.60;33.90
17762;DHT22;9005;48.838;10.112;2023-09-30T12:48:14;26.60;33.50
17762;DHT22;9005;48.838;10.112;2023-09-30T12:50:42;25.80;34.70
17762;DHT22;9005;48.838;10.112;2023-09-30T12:53:11;25.30;35.90
17762;DHT22;9005;48.838;10.112;2023-09-30T12:55:37;25.90;35.80
17762;DHT22;9005;48.838;10.112;2023-09-30T12:58:04;26.70;34.00
17762;DHT22;9005;48.838;10.112;2023-09-30T13:00:31;27.00;34.60
17762;DHT22;9005;48.838;10.112;2023-09-30T13:02:58;27.60;33.00
17762;DHT22;9005;48.838;10.112;2023-09-30T13:05:25;28.40;32.20
17762;DHT22;9005;48.838;10.112;2023-09-30T13:07:52;28.00;32.20
17762;DHT22;9005;48.838;10.112;2023-09-30T13:10:20;26.90;32.80
17762;DHT22;9005;48.838;10.112;2023-09-30T13:12:47;25.20;34.10
17762;DHT22;9005;48.838;10.112;2023-09-30T13:15:15;23.90;36.50
17762;DHT22;9005;48.838;10.112;2023-09-30T13:17:42;23.30;37.90
17762;DHT22;9005;48.838;10.112;2023-09-30T13:20:10;23.30;38.30
17762;DHT22;9005;48.838;10.112;2023-09-30T13:22:37;23.30;38.80
17762;DHT22;9005;48.838;10.112;2023-09-30T13:25:05;23.60;38.00
17762;DHT22;9005;48.838;10.112;2023-09-30T13:27:34;24.00;37.40
17762;DHT22;9005;48.838;10.112;2023-09-30T13:30:01;24.20;36.90
17762;DHT22;9005;48.838;10.112;2023-09-30T13:32:28;24.60;35.90
17762;DHT22;9005;48.838;10.112;2023-09-30T13:34:56;24.80;35.60
17762;DHT22;9005;48.838;10.112;2023-09-30T13:37:23;24.90;35.20
17762;DHT22;9005;48.838;10.112;2023-09-30T13:39:55;24.90;35.30
17762;DHT22;9005;48.838;10.112;2023-09-30T13:42:22;25.20;34.50
17762;DHT22;9005;48.838;10.112;2023-09-30T13:44:50;25.20;35.60
17762;DHT22;9005;48.838;10.112;2023-09-30T13:47:16;25.50;34.40
17762;DHT22;9005;48.838;10.112;2023-09-30T13:49:43;25.60;35.20
17762;DHT22;9005;48.838;10.112;2023-09-30T13:52:11;25.10;36.10
17762;DHT22;9005;48.838;10.112;2023-09-30T13:54:38;24.20;37.60
17762;DHT22;9005;48.838;10.112;2023-09-30T13:57:05;23.60;39.10
17762;DHT22;9005;48.838;10.112;2023-09-30T13:59:34;23.70;39.30
17762;DHT22;9005;48.838;10.112;2023-09-30T14:02:03;24.20;38.90
17762;DHT22;9005;48.838;10.112;2023-09-30T14:04:30;24.10;39.00
17762;DHT22;9005;48.838;10.112;2023-09-30T14:06:57;23.70;39.00
17762;DHT22;9005;48.838;10.112;2023-09-30T14:09:25;23.50;39.90
17762;DHT22;9005;48.838;10.112;2023-09-30T14:11:52;23.70;39.30
17762;DHT22;9005;48.838;10.112;2023-09-30T14:14:19;24.00;38.80
17762;DHT22;9005;48.838;10.112;2023-09-30T14:16:45;24.40;38.20
17762;DHT22;9005;48.838;10.112;2023-09-30T14:19:14;24.30;38.00
17762;DHT22;9005;48.838;10.112;2023-09-30T14:21:41;24.30;38.50
17762;DHT22;9005;48.838;10.112;2023-09-30T14:24:08;24.80;37.80
17762;DHT22;9005;48.838;10.112;2023-09-30T14:26:35;25.60;36.90
17762;DHT22;9005;48.838;10.112;2023-09-30T14:29:02;26.20;35.50
17762;DHT22;9005;48.838;10.112;2023-09-30T14:31:28;26.60;35.10
17762;DHT22;9005;48.838;10.112;2023-09-30T14:33:55;26.80;34.60
17762;DHT22;9005;48.838;10.112;2023-09-30T14:36:23;26.60;34.50
17762;DHT22;9005;48.838;10.112;2023-09-30T14:38:50;26.30;34.50
17762;DHT22;9005;48.838;10.112;2023-09-30T14:41:16;26.10;34.90
17762;DHT22;9005;48.838;10.112;2023-09-30T14:43:44;25.70;35.60
17762;DHT22;9005;48.838;10.112;2023-09-30T14:46:11;25.30;36.20
17762;DHT22;9005;48.838;10.112;2023-09-30T14:48:38;24.60;37.10
17762;DHT22;9005;48.838;10.112;2023-09-30T14:51:05;23.90;38.40
17762;DHT22;9005;48.838;10.112;2023-09-30T14:53:34;23.50;39.10
17762;DHT22;9005;48.838;10.112;2023-09-30T14:56:01;23.40;39.10
17762;DHT22;9005;48.838;10.112;2023-09-30T14:58:28;23.10;39.20
17762;DHT22;9005;48.838;10.112;2023-09-30T15:00:55;23.00;39.70
17762;DHT22;9005;48.838;10.112;2023-09-30T15:03:21;22.80;39.20
17762;DHT22;9005;48.838;10.112;2023-09-30T15:05:48;22.60;40.00
17762;DHT22;9005;48.838;10.112;2023-09-30T15:08:15;22.40;40.40
17762;DHT22;9005;48.838;10.112;2023-09-30T15:10:43;22.20;40.60
17762;DHT22;9005;48.838;10.112;2023-09-30T15:13:11;21.90;41.30
17762;DHT22;9005;48.838;10.112;2023-09-30T15:15:38;21.50;42.00
17762;DHT22;9005;48.838;10.112;2023-09-30T15:18:05;21.30;42.60
17762;DHT22;9005;48.838;10.112;2023-09-30T15:20:37;21.00;43.40
17762;DHT22;9005;48.838;10.112;2023-09-30T15:23:05;20.90;44.00
17762;DHT22;9005;48.838;10.112;2023-09-30T15:25:32;20.60;44.10
17762;DHT22;9005;48.838;10.112;2023-09-30T15:28:00;20.30;44.80
17762;DHT22;9005;48.838;10.112;2023-09-30T15:30:27;20.10;45.30
17762;DHT22;9005;48.838;10.112;2023-09-30T15:32:54;19.90;45.70
17762;DHT22;9005;48.838;10.112;2023-09-30T15:35:21;19.80;45.90